createdAt,value
2022-12-23T00:00:07.446Z,12.3571
2022-12-23T00:01:07.481Z,13
2022-12-23T00:02:07.562Z,12.7143
2022-12-23T00:03:07.750Z,12
2022-12-23T00:04:07.643Z,12
2022-12-23T00:05:07.633Z,12
2022-12-23T00:06:07.676Z,13.1429
2022-12-23T00:07:07.714Z,12.6429
2022-12-23T00:08:07.751Z,11.4286
2022-12-23T00:09:07.784Z,11.5
2022-12-23T00:10:07.815Z,12.2143
2022-12-23T00:11:07.832Z,12.6429
2022-12-23T00:12:07.880Z,11.7143
2022-12-23T00:13:07.911Z,11.6429
2022-12-23T00:14:07.949Z,11.4286
2022-12-23T00:15:07.994Z,12
2022-12-23T00:16:08.068Z,12
2022-12-23T00:17:21.617Z,13.1429
2022-12-23T00:18:08.107Z,12.1429
2022-12-23T00:19:08.130Z,11.4286
2022-12-23T00:20:08.169Z,11.7143
2022-12-23T00:21:09.074Z,12.9286
2022-12-23T00:22:08.246Z,12.3571
2022-12-23T00:23:08.295Z,11.4286
2022-12-23T00:24:08.323Z,11.4286
2022-12-23T00:25:08.350Z,11.6429
2022-12-23T00:26:08.404Z,11.6429
2022-12-23T00:27:08.410Z,11.8571
2022-12-23T00:28:08.443Z,10.7143
2022-12-23T00:29:08.484Z,11.3571
2022-12-23T00:30:08.520Z,11.7143
2022-12-23T00:31:08.543Z,10.8571
2022-12-23T00:32:08.755Z,10
2022-12-23T00:33:08.622Z,10
2022-12-23T00:34:08.652Z,10.1429
2022-12-23T00:35:08.696Z,9.92857
2022-12-23T00:36:08.764Z,9.5
2022-12-23T00:37:08.757Z,9.64286
2022-12-23T00:38:08.785Z,9.64286
2022-12-23T00:39:08.825Z,10
2022-12-23T00:40:08.863Z,10.5
2022-12-23T00:41:08.920Z,11.2143
2022-12-23T00:42:08.937Z,11.5
2022-12-23T00:43:08.957Z,11.2143
2022-12-23T00:44:08.989Z,11.9286
2022-12-23T00:45:09.014Z,10.3571
2022-12-23T00:46:09.103Z,10.9286
2022-12-23T00:47:09.089Z,10.3571
2022-12-23T00:48:09.133Z,10
2022-12-23T00:49:09.167Z,12.2143
2022-12-23T00:50:09.192Z,11.5
2022-12-23T00:51:09.233Z,12
2022-12-23T00:52:09.277Z,10
2022-12-23T00:53:09.285Z,10.5
2022-12-23T00:54:09.325Z,10.4286
2022-12-23T00:55:09.366Z,10.6429
2022-12-23T00:56:09.406Z,9
2022-12-23T00:57:09.432Z,9.35714
2022-12-23T00:58:09.458Z,9.21429
2022-12-23T00:59:09.489Z,9
2022-12-23T01:00:09.514Z,10.1429
2022-12-23T01:01:09.601Z,9.5
2022-12-23T01:02:09.658Z,9.35714
2022-12-23T01:03:09.766Z,9.21429
2022-12-23T01:04:09.640Z,9.64286
2022-12-23T01:05:09.697Z,9.21429
2022-12-23T01:06:09.743Z,9.35714
2022-12-23T01:07:09.749Z,9.35714
2022-12-23T01:08:09.800Z,9
2022-12-23T01:09:09.816Z,9.35714
2022-12-23T01:10:09.852Z,9.42857
2022-12-23T01:11:09.891Z,7.42857
2022-12-23T01:12:09.910Z,7.14286
2022-12-23T01:13:09.953Z,7.5
2022-12-23T01:14:09.983Z,7.5
2022-12-23T01:15:10.023Z,7.92857
2022-12-23T01:16:15.023Z,7.5
2022-12-23T01:17:10.121Z,7.42857
2022-12-23T01:18:10.115Z,6.85714
2022-12-23T01:19:10.139Z,7.71429
2022-12-23T01:20:10.181Z,6.92857
2022-12-23T01:21:10.243Z,7.14286
2022-12-23T01:22:10.256Z,7.21429
2022-12-23T01:23:10.303Z,7.42857
2022-12-23T01:24:10.328Z,7.85714
2022-12-23T01:25:10.361Z,8
2022-12-23T01:26:10.420Z,7.71429
2022-12-23T01:27:10.444Z,6.92857
2022-12-23T01:28:10.457Z,6.85714
2022-12-23T01:29:10.494Z,6.85714
2022-12-23T01:30:10.520Z,6.5
2022-12-23T01:31:10.561Z,6.85714
2022-12-23T01:32:10.611Z,7.14286
2022-12-23T01:33:10.632Z,7.35714
2022-12-23T01:34:10.668Z,7.14286
2022-12-23T01:35:10.704Z,7.14286
2022-12-23T01:36:10.742Z,5.71429
2022-12-23T01:37:10.773Z,5.21429
2022-12-23T01:38:10.805Z,6.21429
2022-12-23T01:39:10.828Z,5.64286
2022-12-23T01:40:10.864Z,6.14286
2022-12-23T01:41:10.915Z,6.71429
2022-12-23T01:42:10.941Z,6.71429
2022-12-23T01:43:10.976Z,6.71429
2022-12-23T01:44:11.018Z,5.71429
2022-12-23T01:45:11.048Z,6
2022-12-23T01:46:11.219Z,6.92857
2022-12-23T01:47:11.108Z,6.71429
2022-12-23T01:48:11.156Z,8.21429
2022-12-23T01:49:11.184Z,9.35714
2022-12-23T01:50:11.222Z,8.5
2022-12-23T01:51:11.251Z,8.42857
2022-12-23T01:52:11.284Z,8.64286
2022-12-23T01:53:11.315Z,7.71429
2022-12-23T01:54:11.342Z,8.14286
2022-12-23T01:55:11.382Z,8.92857
2022-12-23T01:56:11.412Z,8.42857
2022-12-23T01:57:11.444Z,8.71429
2022-12-23T01:58:11.481Z,9.21429
2022-12-23T01:59:11.523Z,8.5
2022-12-23T02:00:11.559Z,8
2022-12-23T02:01:11.640Z,8.14286
2022-12-23T02:02:11.845Z,7.85714
2022-12-23T02:03:11.821Z,8.42857
2022-12-23T02:04:11.698Z,7.64286
2022-12-23T02:05:11.729Z,7.5
2022-12-23T02:06:11.773Z,7.42857
2022-12-23T02:07:11.804Z,7.85714
2022-12-23T02:08:11.833Z,7.14286
2022-12-23T02:09:11.887Z,8.42857
2022-12-23T02:10:11.908Z,7.5
2022-12-23T02:11:11.946Z,7.71429
2022-12-23T02:12:11.982Z,8.5
2022-12-23T02:13:12.019Z,8.21429
2022-12-23T02:14:12.045Z,7.42857
2022-12-23T02:15:12.081Z,8.64286
2022-12-23T02:16:12.118Z,8.42857
2022-12-23T02:17:12.201Z,9.42857
2022-12-23T02:18:12.188Z,10.1429
2022-12-23T02:19:12.236Z,10.1429
2022-12-23T02:20:12.260Z,10.3571
2022-12-23T02:21:12.319Z,11.4286
2022-12-23T02:22:12.335Z,11.2143
2022-12-23T02:23:12.363Z,11.7143
2022-12-23T02:24:12.395Z,10.4286
2022-12-23T02:25:12.448Z,10.3571
2022-12-23T02:26:12.471Z,10.4286
2022-12-23T02:27:12.506Z,11.4286
2022-12-23T02:28:12.552Z,11.7143
2022-12-23T02:29:12.595Z,12.1429
2022-12-23T02:30:12.636Z,13.2143
2022-12-23T02:31:12.707Z,12
2022-12-23T02:32:12.678Z,12
2022-12-23T02:33:12.717Z,11.4286
2022-12-23T02:34:12.759Z,12.1429
2022-12-23T02:35:12.784Z,11.6429
2022-12-23T02:36:12.809Z,11.9286
2022-12-23T02:37:12.851Z,12.3571
2022-12-23T02:38:12.894Z,12.6429
2022-12-23T02:39:12.901Z,11.3571
2022-12-23T02:40:12.949Z,10.8571
2022-12-23T02:41:12.973Z,11.4286
2022-12-23T02:42:13.012Z,12.3571
2022-12-23T02:43:13.046Z,11.1429
2022-12-23T02:44:13.065Z,9.92857
2022-12-23T02:45:13.116Z,10.3571
2022-12-23T02:46:13.289Z,11.2143
2022-12-23T02:47:13.171Z,11.4286
2022-12-23T02:48:13.205Z,11.4286
2022-12-23T02:49:13.243Z,11.8571
2022-12-23T02:50:13.280Z,11.7143
2022-12-23T02:51:13.307Z,12.2143
2022-12-23T02:52:13.332Z,12.3571
2022-12-23T02:53:13.388Z,12.1429
2022-12-23T02:54:13.421Z,12.8571
2022-12-23T02:55:13.473Z,13.1429
2022-12-23T02:56:13.490Z,13.2143
2022-12-23T02:57:13.514Z,13.4286
2022-12-23T02:58:13.556Z,13.1429
2022-12-23T02:59:13.594Z,14.4286
2022-12-23T03:00:13.630Z,13.8571
2022-12-23T03:01:13.742Z,13.1429
2022-12-23T03:02:13.843Z,12.9286
2022-12-23T03:03:13.920Z,12.3571
2022-12-23T03:04:13.759Z,12.8571
2022-12-23T03:05:13.799Z,12.4286
2022-12-23T03:06:13.826Z,14.2143
2022-12-23T03:07:18.515Z,13.5
2022-12-23T03:08:13.890Z,13.5
2022-12-23T03:09:13.928Z,11.3571
2022-12-23T03:10:13.987Z,12.1429
2022-12-23T03:11:14.000Z,12.6429
2022-12-23T03:12:14.033Z,11.8571
2022-12-23T03:13:14.071Z,12.8571
2022-12-23T03:14:14.093Z,12.4286
2022-12-23T03:15:14.144Z,12.2143
2022-12-23T03:16:14.323Z,12.4286
2022-12-23T03:17:14.200Z,13.8571
2022-12-23T03:18:14.242Z,14.3571
2022-12-23T03:19:14.263Z,13.5
2022-12-23T03:20:14.304Z,13.1429
2022-12-23T03:21:14.332Z,14.1429
2022-12-23T03:22:14.365Z,12.8571
2022-12-23T03:23:14.408Z,12.9286
2022-12-23T03:24:14.447Z,11.2143
2022-12-23T03:25:14.475Z,11.4286
2022-12-23T03:26:14.517Z,11.3571
2022-12-23T03:27:14.542Z,10.7143
2022-12-23T03:28:14.577Z,11.1429
2022-12-23T03:29:14.628Z,11.8571
2022-12-23T03:30:14.658Z,12
2022-12-23T03:31:14.746Z,11.1429
2022-12-23T03:32:14.729Z,10.2143
2022-12-23T03:33:14.772Z,10.7143
2022-12-23T03:34:14.787Z,10.2143
2022-12-23T03:35:14.813Z,10.5
2022-12-23T03:36:14.849Z,11.4286
2022-12-23T03:37:14.879Z,11.4286
2022-12-23T03:38:14.919Z,11.1429
2022-12-23T03:39:14.977Z,12.4286
2022-12-23T03:40:14.996Z,12.4286
2022-12-23T03:41:15.430Z,11.5
2022-12-23T03:42:15.476Z,11
2022-12-23T03:43:15.506Z,11.9286
2022-12-23T03:44:15.540Z,12.4286
2022-12-23T03:45:39.350Z,12.3571
2022-12-23T03:46:15.703Z,11.8571
2022-12-23T03:47:15.650Z,12.6429
2022-12-23T03:48:15.694Z,11.6429
2022-12-23T03:49:15.717Z,12.2143
2022-12-23T03:50:15.751Z,11.9286
2022-12-23T03:51:15.790Z,13
2022-12-23T03:52:20.892Z,12.7143
2022-12-23T03:53:15.852Z,12.9286
2022-12-23T03:54:15.882Z,12.3571
2022-12-23T03:55:15.917Z,13.3571
2022-12-23T03:56:15.954Z,12.8571
2022-12-23T03:57:15.987Z,12.9286
2022-12-23T03:58:16.030Z,13.6429
2022-12-23T03:59:16.068Z,11.7143
2022-12-23T04:00:16.095Z,11
2022-12-23T04:01:18.023Z,11.3571
2022-12-23T04:02:16.282Z,10.8571
2022-12-23T04:03:16.188Z,10.3571
2022-12-23T04:04:16.325Z,10.8571
2022-12-23T04:05:16.239Z,11.4286
2022-12-23T04:06:16.277Z,10.7143
2022-12-23T04:07:16.304Z,10.6429
2022-12-23T04:08:16.346Z,9.92857
2022-12-23T04:09:21.717Z,10.2143
2022-12-23T04:10:16.407Z,11.1429
2022-12-23T04:11:16.458Z,10.3571
2022-12-23T04:12:16.482Z,9.14286
2022-12-23T04:13:16.520Z,11.7143
2022-12-23T04:14:16.578Z,12.4286
2022-12-23T04:15:16.585Z,12.9286
2022-12-23T04:16:16.735Z,12.7143
2022-12-23T04:17:16.649Z,12.6429
2022-12-23T04:18:16.695Z,12.4286
2022-12-23T04:19:16.737Z,12.8571
2022-12-23T04:20:16.755Z,12.7143
2022-12-23T04:21:16.790Z,12.8571
2022-12-23T04:22:16.849Z,11.6429
2022-12-23T04:23:16.859Z,11.3571
2022-12-23T04:24:20.240Z,11.3571
2022-12-23T04:25:19.102Z,13
2022-12-23T04:26:19.116Z,12.1429
2022-12-23T04:27:19.192Z,12.2143
2022-12-23T04:28:19.199Z,11.4286
2022-12-23T04:29:19.235Z,11.9286
2022-12-23T04:30:19.259Z,12.8571
2022-12-23T04:31:19.352Z,11.4286
2022-12-23T04:32:19.363Z,11.5
2022-12-23T04:33:19.380Z,10.7143
2022-12-23T04:34:19.454Z,11.1429
2022-12-23T04:35:19.451Z,9.5
2022-12-23T04:36:19.484Z,9.92857
2022-12-23T04:37:19.503Z,11.2143
2022-12-23T04:38:19.558Z,10.3571
2022-12-23T04:39:19.604Z,9.64286
2022-12-23T04:40:19.610Z,9.85714
2022-12-23T04:41:19.653Z,9.5
2022-12-23T04:42:19.682Z,9.92857
2022-12-23T04:43:19.709Z,10.5
2022-12-23T04:44:19.742Z,10.3571
2022-12-23T04:45:19.791Z,10.6429
2022-12-23T04:46:19.858Z,10.5
2022-12-23T04:47:19.884Z,11.2143
2022-12-23T04:48:19.888Z,10.2143
2022-12-23T04:49:19.926Z,10
2022-12-23T04:50:19.955Z,10
2022-12-23T04:51:19.981Z,11.1429
2022-12-23T04:52:20.049Z,10.6429
2022-12-23T04:53:20.051Z,10.9286
2022-12-23T04:54:20.084Z,11.8571
2022-12-23T04:55:20.137Z,11.1429
2022-12-23T04:56:20.151Z,10.2143
2022-12-23T04:57:20.190Z,10.1429
2022-12-23T04:58:20.229Z,10.7143
2022-12-23T04:59:20.251Z,11.2143
2022-12-23T05:00:20.290Z,10.7143
2022-12-23T05:01:20.414Z,9.42857
2022-12-23T05:02:20.456Z,8.71429
2022-12-23T05:03:20.557Z,10
2022-12-23T05:04:20.455Z,10.1429
2022-12-23T05:05:20.455Z,10.9286
2022-12-23T05:06:20.499Z,11.1429
2022-12-23T05:07:20.539Z,11.3571
2022-12-23T05:08:20.569Z,10.5
2022-12-23T05:09:20.605Z,10.1429
2022-12-23T05:10:20.631Z,9.35714
2022-12-23T05:11:20.662Z,10.4286
2022-12-23T05:12:20.694Z,11
2022-12-23T05:13:20.720Z,10.7143
2022-12-23T05:14:20.762Z,11.7143
2022-12-23T05:15:20.796Z,11.3571
2022-12-23T05:16:20.901Z,11.7143
2022-12-23T05:17:20.860Z,11.5
2022-12-23T05:18:20.897Z,10.7143
2022-12-23T05:19:20.937Z,9.21429
2022-12-23T05:20:20.969Z,9.64286
2022-12-23T05:21:21.008Z,10.1429
2022-12-23T05:22:21.045Z,9.35714
2022-12-23T05:23:21.068Z,11
2022-12-23T05:24:21.120Z,10.7143
2022-12-23T05:25:21.139Z,10.9286
2022-12-23T05:26:21.176Z,11.4286
2022-12-23T05:27:21.204Z,10.7143
2022-12-23T05:28:21.232Z,11.5
2022-12-23T05:29:21.264Z,10.4286
2022-12-23T05:30:21.308Z,10.3571
2022-12-23T05:31:21.402Z,9.64286
2022-12-23T05:32:21.373Z,9.92857
2022-12-23T05:33:21.454Z,10.1429
2022-12-23T05:34:21.449Z,9.64286
2022-12-23T05:35:21.470Z,9.64286
2022-12-23T05:36:21.508Z,10.9286
2022-12-23T05:37:21.545Z,9.64286
2022-12-23T05:38:21.579Z,9.35714
2022-12-23T05:39:21.612Z,9.64286
2022-12-23T05:40:24.135Z,10.2143
2022-12-23T05:41:21.687Z,9.71429
2022-12-23T05:42:21.729Z,10.1429
2022-12-23T05:43:21.763Z,10.1429
2022-12-23T05:44:21.806Z,9.42857
2022-12-23T05:45:21.839Z,9.71429
2022-12-23T05:46:26.609Z,8.92857
2022-12-23T05:47:21.913Z,8.92857
2022-12-23T05:48:21.949Z,9.35714
2022-12-23T05:49:21.980Z,8.64286
2022-12-23T05:50:22.028Z,9.64286
2022-12-23T05:51:22.041Z,8.42857
2022-12-23T05:52:22.073Z,8.92857
2022-12-23T05:53:22.106Z,9.21429
2022-12-23T05:54:22.142Z,8.71429
2022-12-23T05:55:22.178Z,9.14286
2022-12-23T05:56:22.215Z,9.71429
2022-12-23T05:57:22.248Z,9.5
2022-12-23T05:58:22.284Z,9.5
2022-12-23T05:59:23.534Z,9.35714
2022-12-23T06:00:22.368Z,8.92857
2022-12-23T06:01:22.370Z,9.35714
2022-12-23T06:02:22.661Z,10.1429
2022-12-23T06:03:22.732Z,11.3571
2022-12-23T06:04:22.605Z,9.35714
2022-12-23T06:05:22.523Z,9.71429
2022-12-23T06:06:22.563Z,9.64286
2022-12-23T06:07:22.589Z,10.6429
2022-12-23T06:08:22.615Z,9.71429
2022-12-23T06:09:22.636Z,9.21429
2022-12-23T06:10:22.668Z,8.92857
2022-12-23T06:11:22.702Z,10.2143
2022-12-23T06:12:22.770Z,10.6429
2022-12-23T06:13:22.784Z,9.85714
2022-12-23T06:14:28.605Z,9.71429
2022-12-23T06:15:22.855Z,9.14286
2022-12-23T06:16:22.925Z,8.71429
2022-12-23T06:17:22.909Z,9.5
2022-12-23T06:18:22.951Z,8.85714
2022-12-23T06:19:22.979Z,9.42857
2022-12-23T06:20:23.018Z,8.92857
2022-12-23T06:21:23.077Z,9.42857
2022-12-23T06:22:23.085Z,8.92857
2022-12-23T06:23:23.117Z,9.64286
2022-12-23T06:24:23.148Z,8.85714
2022-12-23T06:25:23.185Z,9.5
2022-12-23T06:26:23.214Z,9.71429
2022-12-23T06:27:23.249Z,8.21429
2022-12-23T06:28:23.274Z,9.35714
2022-12-23T06:29:23.309Z,9.5
2022-12-23T06:30:23.353Z,10.2143
2022-12-23T06:31:23.427Z,10.1429
2022-12-23T06:32:23.428Z,10.4286
2022-12-23T06:33:23.448Z,11.2143
2022-12-23T06:34:23.494Z,10.6429
2022-12-23T06:35:23.522Z,9
2022-12-23T06:36:23.581Z,9.21429
2022-12-23T06:37:23.604Z,9.5
2022-12-23T06:38:23.629Z,9.14286
2022-12-23T06:39:23.652Z,9.5
2022-12-23T06:40:23.692Z,8.71429
2022-12-23T06:41:23.728Z,10.8571
2022-12-23T06:42:23.760Z,9.5
2022-12-23T06:43:23.797Z,9.85714
2022-12-23T06:44:23.842Z,9.92857
2022-12-23T06:45:23.862Z,9.64286
2022-12-23T06:46:24.021Z,10.6429
2022-12-23T06:47:23.955Z,9
2022-12-23T06:48:23.989Z,8.64286
2022-12-23T06:49:24.010Z,9.5
2022-12-23T06:50:24.044Z,9.92857
2022-12-23T06:51:24.079Z,9.64286
2022-12-23T06:52:24.112Z,9.71429
2022-12-23T06:53:24.155Z,9.71429
2022-12-23T06:54:24.195Z,10.5
2022-12-23T06:55:24.226Z,10.7143
2022-12-23T06:56:24.255Z,10.7143
2022-12-23T06:57:24.290Z,11.9286
2022-12-23T06:58:24.360Z,11.3571
2022-12-23T06:59:24.355Z,12.1429
2022-12-23T07:00:24.392Z,11.5
2022-12-23T07:01:24.498Z,11.1429
2022-12-23T07:02:24.644Z,11.2143
2022-12-23T07:03:24.559Z,11.2143
2022-12-23T07:04:24.527Z,10.7143
2022-12-23T07:05:24.571Z,9.85714
2022-12-23T07:06:24.600Z,10.3571
2022-12-23T07:07:24.625Z,10.8571
2022-12-23T07:08:24.666Z,10.4286
2022-12-23T07:09:24.699Z,10.5
2022-12-23T07:10:24.728Z,9.42857
2022-12-23T07:11:24.767Z,9
2022-12-23T07:12:24.804Z,10
2022-12-23T07:13:24.821Z,8.42857
2022-12-23T07:14:24.867Z,9.5
2022-12-23T07:15:24.895Z,9
2022-12-23T07:16:24.959Z,7.85714
2022-12-23T07:17:24.966Z,8
2022-12-23T07:18:25.010Z,9.35714
2022-12-23T07:19:25.033Z,9.85714
2022-12-23T07:20:25.064Z,11.2143
2022-12-23T07:21:29.569Z,9.85714
2022-12-23T07:22:25.140Z,9.92857
2022-12-23T07:23:25.161Z,9.71429
2022-12-23T07:24:25.196Z,9.64286
2022-12-23T07:25:25.232Z,9.42857
2022-12-23T07:26:25.275Z,8.92857
2022-12-23T07:27:25.289Z,8.85714
2022-12-23T07:28:25.329Z,8.35714
2022-12-23T07:29:25.357Z,8.14286
2022-12-23T07:30:25.383Z,8.71429
2022-12-23T07:31:25.537Z,9.5
2022-12-23T07:32:25.466Z,9.42857
2022-12-23T07:33:25.498Z,10.2143
2022-12-23T07:34:25.538Z,9.64286
2022-12-23T07:35:25.564Z,10
2022-12-23T07:36:25.609Z,10
2022-12-23T07:37:25.647Z,11.1429
2022-12-23T07:38:25.689Z,10.8571
2022-12-23T07:39:25.715Z,11.6429
2022-12-23T07:40:25.736Z,10.8571
2022-12-23T07:41:25.771Z,10.3571
2022-12-23T07:42:44.429Z,11.4286
2022-12-23T07:43:25.839Z,11.1429
2022-12-23T07:44:25.861Z,11.2143
2022-12-23T07:45:25.912Z,10.8571
2022-12-23T07:46:25.990Z,11.2143
2022-12-23T07:47:25.962Z,11.6429
2022-12-23T07:48:25.994Z,12.1429
2022-12-23T07:49:26.023Z,11.5
2022-12-23T07:50:26.177Z,11.5
2022-12-23T07:51:27.305Z,11.7143
2022-12-23T07:52:27.305Z,11.4286
2022-12-23T07:53:27.330Z,11.7143
2022-12-23T07:54:27.372Z,11.6429
2022-12-23T07:55:27.394Z,11.4286
2022-12-23T07:56:27.431Z,12.1429
2022-12-23T07:57:27.500Z,12.2143
2022-12-23T07:58:27.507Z,11.4286
2022-12-23T07:59:27.585Z,11.9286
2022-12-23T08:00:27.583Z,11.3571
2022-12-23T08:01:27.735Z,12.5
2022-12-23T08:02:27.841Z,11.2143
2022-12-23T08:03:27.726Z,10.8571
2022-12-23T08:04:27.822Z,9.85714
2022-12-23T08:05:27.801Z,11
2022-12-23T08:06:27.767Z,10
2022-12-23T08:07:27.811Z,10.5
2022-12-23T08:08:27.844Z,11.1429
2022-12-23T08:09:27.883Z,10.8571
2022-12-23T08:10:27.921Z,11
2022-12-23T08:11:27.951Z,11
2022-12-23T08:12:28.003Z,10.4286
2022-12-23T08:13:28.019Z,10.9286
2022-12-23T08:14:28.051Z,10.1429
2022-12-23T08:15:28.075Z,10.1429
2022-12-23T08:16:28.176Z,11.9286
2022-12-23T08:17:28.149Z,11.8571
2022-12-23T08:18:28.185Z,11.3571
2022-12-23T08:19:28.221Z,12.2143
2022-12-23T08:20:28.279Z,11.8571
2022-12-23T08:21:28.286Z,11.6429
2022-12-23T08:22:28.319Z,12.1429
2022-12-23T08:23:28.363Z,11.7143
2022-12-23T08:24:28.390Z,11.8571
2022-12-23T08:25:28.439Z,12.2143
2022-12-23T08:26:28.456Z,10.4286
2022-12-23T08:27:28.517Z,11.5
2022-12-23T08:28:28.536Z,11.7143
2022-12-23T08:29:32.630Z,10.7143
2022-12-23T08:30:28.752Z,11.9286
2022-12-23T08:31:28.804Z,11.6429
2022-12-23T08:32:28.668Z,11.9286
2022-12-23T08:33:28.711Z,12.1429
2022-12-23T08:34:28.744Z,11.3571
2022-12-23T08:35:28.780Z,11.3571
2022-12-23T08:36:28.809Z,11.3571
2022-12-23T08:37:28.845Z,12.3571
2022-12-23T08:38:28.870Z,11.2143
2022-12-23T08:39:28.901Z,12.1429
2022-12-23T08:40:28.936Z,11
2022-12-23T08:41:28.965Z,11.6429
2022-12-23T08:42:29.006Z,11.3571
2022-12-23T08:43:35.527Z,11.6429
2022-12-23T08:44:29.069Z,11.2143
2022-12-23T08:45:29.101Z,11.6429
2022-12-23T08:46:29.250Z,11.1429
2022-12-23T08:47:29.170Z,10.8571
2022-12-23T08:48:29.198Z,11.1429
2022-12-23T08:49:29.232Z,11.6429
2022-12-23T08:50:29.264Z,11.6429
2022-12-23T08:51:29.460Z,11.2143
2022-12-23T08:52:29.341Z,10.9286
2022-12-23T08:53:29.371Z,11.6429
2022-12-23T08:54:29.419Z,11
2022-12-23T08:55:29.433Z,11.3571
2022-12-23T08:56:29.481Z,11.5
2022-12-23T08:57:29.504Z,10.9286
2022-12-23T08:58:29.531Z,10.8571
2022-12-23T08:59:29.579Z,11.5
2022-12-23T09:00:29.622Z,11.1429
2022-12-23T09:01:29.740Z,11.7143
2022-12-23T09:02:29.775Z,11.1429
2022-12-23T09:03:29.804Z,10.3571
2022-12-23T09:04:29.743Z,9.5
2022-12-23T09:05:29.785Z,10.2143
2022-12-23T09:06:30.591Z,10.3571
2022-12-23T09:07:29.829Z,10.4286
2022-12-23T09:08:29.857Z,10
2022-12-23T09:09:29.901Z,10.2143
2022-12-23T09:10:29.913Z,10
2022-12-23T09:11:29.973Z,9.71429
2022-12-23T09:12:29.983Z,9.85714
2022-12-23T09:13:35.104Z,9.21429
2022-12-23T09:14:30.032Z,9.85714
2022-12-23T09:15:30.137Z,8.5
2022-12-23T09:16:30.209Z,9.64286
2022-12-23T09:17:30.153Z,9.71429
2022-12-23T09:18:30.180Z,9.92857
2022-12-23T09:19:30.211Z,10.1429
2022-12-23T09:20:30.242Z,9.21429
2022-12-23T09:21:30.286Z,9.71429
2022-12-23T09:22:30.324Z,9
2022-12-23T09:23:30.374Z,9
2022-12-23T09:24:30.715Z,8.14286
2022-12-23T09:25:30.746Z,9.35714
2022-12-23T09:26:30.765Z,8.92857
2022-12-23T09:27:30.813Z,8.71429
2022-12-23T09:28:30.833Z,9.14286
2022-12-23T09:29:30.870Z,8.92857
2022-12-23T09:30:30.901Z,9.42857
2022-12-23T09:31:36.109Z,8.64286
2022-12-23T09:32:30.968Z,9
2022-12-23T09:33:31.003Z,8.71429
2022-12-23T09:34:31.031Z,8.71429
2022-12-23T09:35:31.068Z,8.64286
2022-12-23T09:36:31.102Z,8.35714
2022-12-23T09:37:31.119Z,8.64286
2022-12-23T09:38:31.144Z,8.35714
2022-12-23T09:39:31.184Z,9.21429
2022-12-23T09:40:31.216Z,7.71429
2022-12-23T09:41:31.255Z,8.85714
2022-12-23T09:42:31.324Z,8.14286
2022-12-23T09:43:31.308Z,8.21429
2022-12-23T09:44:31.363Z,8.5
2022-12-23T09:45:36.969Z,8.14286
2022-12-23T09:46:31.440Z,8.14286
2022-12-23T09:47:31.457Z,8.14286
2022-12-23T09:48:31.484Z,8.21429
2022-12-23T09:49:31.505Z,11
2022-12-23T09:50:31.558Z,8.64286
2022-12-23T09:51:31.591Z,7.85714
2022-12-23T09:52:31.626Z,8.71429
2022-12-23T09:53:31.645Z,8.35714
2022-12-23T09:54:31.681Z,8.64286
2022-12-23T09:55:31.716Z,8.71429
2022-12-23T09:56:31.741Z,8.5
2022-12-23T09:57:31.795Z,8.5
2022-12-23T09:58:31.844Z,8.71429
2022-12-23T09:59:31.849Z,8.85714
2022-12-23T10:00:31.868Z,8.64286
2022-12-23T10:01:32.012Z,8.85714
2022-12-23T10:02:32.077Z,8.92857
2022-12-23T10:03:32.151Z,7.85714
2022-12-23T10:04:32.134Z,9
2022-12-23T10:05:32.041Z,8.92857
2022-12-23T10:06:32.089Z,10.7143
2022-12-23T10:07:32.110Z,10
2022-12-23T10:08:32.142Z,10.3571
2022-12-23T10:09:32.170Z,11.3571
2022-12-23T10:10:32.209Z,14.4286
2022-12-23T10:11:32.245Z,12.5
2022-12-23T10:12:37.402Z,16.5
2022-12-23T10:13:32.314Z,17.4286
2022-12-23T10:14:32.358Z,15.2143
2022-12-23T10:15:32.393Z,12.4286
2022-12-23T10:16:32.536Z,11.4286
2022-12-23T10:17:32.459Z,11
2022-12-23T10:18:32.492Z,9.71429
2022-12-23T10:19:32.532Z,9.42857
2022-12-23T10:20:32.563Z,8.85714
2022-12-23T10:21:32.591Z,9.64286
2022-12-23T10:22:32.647Z,8.85714
2022-12-23T10:23:32.657Z,8.42857
2022-12-23T10:24:32.698Z,8.64286
2022-12-23T10:25:32.721Z,9.42857
2022-12-23T10:26:32.757Z,9.64286
2022-12-23T10:27:32.793Z,9
2022-12-23T10:28:32.829Z,8.14286
2022-12-23T10:29:32.873Z,7.21429
2022-12-23T10:31:05.728Z,7.64286
2022-12-23T10:31:40.262Z,7.92857
2022-12-23T10:32:33.034Z,8.35714
2022-12-23T10:33:33.016Z,8.71429
2022-12-23T10:34:38.292Z,9.64286
2022-12-23T10:35:33.073Z,9.5
2022-12-23T10:36:33.185Z,8.5
2022-12-23T10:37:33.125Z,10.2143
2022-12-23T10:38:33.241Z,15.5
2022-12-23T10:39:33.192Z,14.8571
2022-12-23T10:40:33.239Z,12.7143
2022-12-23T10:41:33.263Z,10.6429
2022-12-23T10:42:33.301Z,9.14286
2022-12-23T10:43:33.335Z,9.21429
2022-12-23T10:44:33.381Z,11.1429
2022-12-23T10:45:33.435Z,10.5
2022-12-23T10:46:33.466Z,11.1429
2022-12-23T10:47:33.491Z,9.5
2022-12-23T10:48:33.538Z,9.85714
2022-12-23T10:49:33.556Z,11
2022-12-23T10:50:33.591Z,9.21429
2022-12-23T10:51:33.628Z,8.85714
2022-12-23T10:52:33.671Z,8.5
2022-12-23T10:53:33.694Z,7.42857
2022-12-23T10:54:33.731Z,7.71429
2022-12-23T10:55:34.288Z,8.64286
2022-12-23T10:56:33.807Z,8.21429
2022-12-23T10:57:33.832Z,9
2022-12-23T10:58:33.875Z,7.85714
2022-12-23T10:59:33.923Z,7.5
2022-12-23T11:00:33.997Z,7.42857
2022-12-23T11:01:34.131Z,7.42857
2022-12-23T11:02:34.201Z,7.42857
2022-12-23T11:03:34.199Z,7.71429
2022-12-23T11:04:34.078Z,6.71429
2022-12-23T11:05:34.109Z,7.21429
2022-12-23T11:06:37.623Z,7.64286
2022-12-23T11:07:45.647Z,7.85714
2022-12-23T11:08:34.208Z,7.5
2022-12-23T11:09:34.238Z,7.21429
2022-12-23T11:10:34.306Z,6.85714
2022-12-23T11:11:34.302Z,6.5
2022-12-23T11:12:40.421Z,6.5
2022-12-23T11:13:34.375Z,7
2022-12-23T11:14:34.400Z,7.21429
2022-12-23T11:15:34.429Z,6.64286
2022-12-23T11:16:34.526Z,7
2022-12-23T11:17:34.488Z,6.14286
2022-12-23T11:18:40.317Z,6.5
2022-12-23T11:19:34.562Z,6.92857
2022-12-23T11:20:34.589Z,7
2022-12-23T11:21:34.625Z,6.71429
2022-12-23T11:22:34.651Z,7.14286
2022-12-23T11:23:34.698Z,6.92857
2022-12-23T11:24:41.338Z,7.35714
2022-12-23T11:25:34.808Z,7.5
2022-12-23T11:26:34.787Z,7.64286
2022-12-23T11:27:34.832Z,7.5
2022-12-23T11:28:34.860Z,7.14286
2022-12-23T11:29:34.914Z,7.42857
2022-12-23T11:30:34.940Z,6.85714
2022-12-23T11:31:35.155Z,7.35714
2022-12-23T11:32:35.033Z,7.64286
2022-12-23T11:33:35.056Z,8.21429
2022-12-23T11:34:35.100Z,7.64286
2022-12-23T11:35:35.176Z,6.92857
2022-12-23T11:36:35.163Z,6.92857
2022-12-23T11:37:35.188Z,7.14286
2022-12-23T11:38:35.219Z,7.85714
2022-12-23T11:39:35.263Z,8.21429
2022-12-23T11:40:35.295Z,8.42857
2022-12-23T11:41:35.323Z,8.21429
2022-12-23T11:42:35.359Z,8.14286
2022-12-23T11:43:35.396Z,7.64286
2022-12-23T11:44:35.434Z,8.14286
2022-12-23T11:45:35.576Z,8.5
2022-12-23T11:46:35.502Z,7.42857
2022-12-23T11:47:35.536Z,8.35714
2022-12-23T11:48:35.614Z,8.42857
2022-12-23T11:49:35.605Z,8.21429
2022-12-23T11:50:35.633Z,8.21429
2022-12-23T11:51:35.672Z,7.71429
2022-12-23T11:52:35.700Z,8
2022-12-23T11:53:35.726Z,8.14286
2022-12-23T11:54:35.768Z,7.92857
2022-12-23T11:55:35.813Z,8
2022-12-23T11:56:35.885Z,9
2022-12-23T11:57:35.863Z,8.71429
2022-12-23T11:58:35.900Z,9
2022-12-23T11:59:35.926Z,8.92857
2022-12-23T12:00:35.957Z,9.21429
2022-12-23T12:01:35.985Z,8.85714
2022-12-23T12:02:36.054Z,9
2022-12-23T12:03:36.142Z,8.64286
2022-12-23T12:04:36.093Z,8.42857
2022-12-23T12:05:36.126Z,8.71429
2022-12-23T12:06:36.162Z,8.35714
2022-12-23T12:07:36.210Z,8
2022-12-23T12:08:36.256Z,8.64286
2022-12-23T12:09:36.257Z,8.35714
2022-12-23T12:10:36.292Z,8.85714
2022-12-23T12:11:36.330Z,8.35714
2022-12-23T12:12:36.361Z,8.35714
2022-12-23T12:13:36.407Z,8.71429
2022-12-23T12:14:36.434Z,8.14286
2022-12-23T12:15:36.462Z,8.14286
2022-12-23T12:16:36.570Z,7.92857
2022-12-23T12:17:36.529Z,9
2022-12-23T12:18:36.563Z,8.42857
2022-12-23T12:19:36.608Z,8.5
2022-12-23T12:20:36.655Z,7.85714
2022-12-23T12:21:36.666Z,8.71429
2022-12-23T12:22:36.693Z,8.21429
2022-12-23T12:23:36.722Z,7.85714
2022-12-23T12:24:36.759Z,8.92857